createdAt,value
2023-04-18T00:02:17.274Z,101570.81
2023-04-18T00:04:46.415Z,101565.91
2023-04-18T00:07:15.251Z,101561.16
2023-04-18T00:09:44.818Z,101574.66
2023-04-18T00:12:12.733Z,101566.28
2023-04-18T00:14:41.023Z,101564.97
2023-04-18T00:17:09.011Z,101554.31
2023-04-18T00:19:38.536Z,101556.59
2023-04-18T00:22:07.022Z,101554.66
2023-04-18T00:24:34.827Z,101557.91
2023-04-18T00:27:04.032Z,101549.88
2023-04-18T00:29:32.329Z,101552.38
2023-04-18T00:32:00.042Z,101552.28
2023-04-18T00:34:31.490Z,101548.44
2023-04-18T00:36:59.264Z,101550.00
2023-04-18T00:39:26.945Z,101558.75
2023-04-18T00:41:54.728Z,101544.84
2023-04-18T00:44:23.824Z,101555.75
2023-04-18T00:46:51.527Z,101557.53
2023-04-18T00:49:19.406Z,101563.78
2023-04-18T00:51:48.139Z,101547.00
2023-04-18T00:54:22.149Z,101552.16
2023-04-18T00:56:50.426Z,101555.38
2023-04-18T00:59:18.274Z,101556.84
2023-04-18T01:01:48.244Z,101555.88
2023-04-18T01:04:16.325Z,101560.16
2023-04-18T01:06:45.506Z,101558.97
2023-04-18T01:09:14.297Z,101554.53
2023-04-18T01:11:42.037Z,101553.59
2023-04-18T01:14:10.528Z,101555.00
2023-04-18T01:16:38.829Z,101553.09
2023-04-18T01:19:08.393Z,101556.44
2023-04-18T01:21:37.194Z,101563.25
2023-04-18T01:24:12.467Z,101558.59
2023-04-18T01:26:43.562Z,101545.31
2023-04-18T01:29:12.077Z,101553.91
2023-04-18T01:31:40.910Z,101559.06
2023-04-18T01:34:09.496Z,101550.31
2023-04-18T01:36:39.105Z,101550.41
2023-04-18T01:39:07.528Z,101546.81
2023-04-18T01:41:36.673Z,101555.56
2023-04-18T01:44:05.010Z,101549.72
2023-04-18T01:46:32.858Z,101552.09
2023-04-18T01:49:02.459Z,101543.97
2023-04-18T01:51:31.328Z,101542.03
2023-04-18T01:53:59.207Z,101541.06
2023-04-18T01:56:27.040Z,101543.69
2023-04-18T01:58:56.125Z,101545.38
2023-04-18T02:01:23.941Z,101541.06
2023-04-18T02:03:52.069Z,101537.63
2023-04-18T02:06:20.355Z,101538.41
2023-04-18T02:08:49.095Z,101546.31
2023-04-18T02:11:16.818Z,101544.53
2023-04-18T02:13:44.566Z,101547.31
2023-04-18T02:16:14.731Z,101544.06
2023-04-18T02:18:44.705Z,101543.34
2023-04-18T02:21:14.436Z,101534.75
2023-04-18T02:23:42.186Z,101547.78
2023-04-18T02:26:09.931Z,101548.63
2023-04-18T02:28:38.932Z,101555.69
2023-04-18T02:31:07.220Z,101548.06
2023-04-18T02:33:36.962Z,101540.03
2023-04-18T02:36:05.480Z,101550.81
2023-04-18T02:38:33.170Z,101549.13
2023-04-18T02:41:01.000Z,101555.34
2023-04-18T02:43:28.771Z,101558.25
2023-04-18T02:45:56.708Z,101554.78
2023-04-18T02:48:24.882Z,101553.94
2023-04-18T02:50:54.104Z,101552.97
2023-04-18T02:53:23.915Z,101559.09
2023-04-18T02:55:54.575Z,101567.84
2023-04-18T02:58:27.557Z,101548.66
2023-04-18T03:01:16.464Z,101550.69
2023-04-18T03:03:58.178Z,101554.16
2023-04-18T03:06:34.999Z,101556.91
2023-04-18T03:09:04.156Z,101561.50
2023-04-18T03:11:34.239Z,101548.44
2023-04-18T03:14:02.078Z,101558.38
2023-04-18T03:16:37.442Z,101554.09
2023-04-18T03:19:06.838Z,101571.41
2023-04-18T03:21:36.421Z,101548.81
2023-04-18T03:24:04.280Z,101556.72
2023-04-18T03:26:34.221Z,101558.25
2023-04-18T03:29:02.899Z,101560.03
2023-04-18T03:31:30.820Z,101566.28
2023-04-18T03:33:58.592Z,101568.91
2023-04-18T03:36:28.632Z,101569.03
2023-04-18T03:38:57.736Z,101564.72
2023-04-18T03:41:26.267Z,101569.16
2023-04-18T03:43:56.230Z,101577.06
2023-04-18T03:46:24.590Z,101580.03
2023-04-18T03:48:54.356Z,101579.69
2023-04-18T03:51:22.543Z,101579.69
2023-04-18T03:53:50.282Z,101579.94
2023-04-18T03:56:20.356Z,101582.81
2023-04-18T03:58:51.342Z,101587.22
2023-04-18T04:01:21.565Z,101583.06
2023-04-18T04:03:52.073Z,101586.66
2023-04-18T04:06:20.913Z,101585.19
2023-04-18T04:08:48.632Z,101592.16
2023-04-18T04:11:22.909Z,101580.03
2023-04-18T04:13:51.113Z,101578.41
2023-04-18T04:16:23.115Z,101587.25
2023-04-18T04:18:52.985Z,101580.88
2023-04-18T04:21:27.123Z,101576.34
2023-04-18T04:23:54.973Z,101590.47
2023-04-18T04:26:31.656Z,101588.31
2023-04-18T04:29:05.082Z,101580.78
2023-04-18T04:31:35.001Z,101585.91
2023-04-18T04:34:03.440Z,101577.03
2023-04-18T04:36:33.376Z,101583.16
2023-04-18T04:39:04.108Z,101583.28
2023-04-18T04:41:49.899Z,101569.75
2023-04-18T04:44:19.722Z,101578.72
2023-04-18T04:46:47.851Z,101589.59
2023-04-18T04:49:20.519Z,101594.88
2023-04-18T04:51:49.270Z,101602.53
2023-04-18T04:54:17.159Z,101604.91
2023-04-18T04:56:44.997Z,101602.06
2023-04-18T04:59:14.291Z,101615.34
2023-04-18T05:01:46.542Z,101615.97
2023-04-18T05:04:15.932Z,101611.53
2023-04-18T05:06:44.068Z,101621.97
2023-04-18T05:09:11.827Z,101629.97
2023-04-18T05:11:39.619Z,101617.63
2023-04-18T05:14:07.437Z,101620.13
2023-04-18T05:16:36.742Z,101619.19
2023-04-18T05:19:04.638Z,101626.03
2023-04-18T05:21:32.619Z,101623.38
2023-04-18T05:24:00.369Z,101628.66
2023-04-18T05:26:28.524Z,101618.47
2023-04-18T05:28:56.385Z,101623.50
2023-04-18T05:31:24.181Z,101625.19
2023-04-18T05:33:53.296Z,101621.81
2023-04-18T05:36:21.477Z,101624.34
2023-04-18T05:38:49.202Z,101625.91
2023-04-18T05:41:16.981Z,101629.59
2023-04-18T05:43:51.047Z,101634.66
2023-04-18T05:46:25.989Z,101641.44
2023-04-18T05:48:55.063Z,101639.78
2023-04-18T05:51:22.809Z,101632.72
2023-04-18T05:53:50.665Z,101643.75
2023-04-18T05:56:18.403Z,101651.88
2023-04-18T05:58:47.601Z,101650.94
2023-04-18T06:01:16.137Z,101653.44
2023-04-18T06:03:44.015Z,101649.72
2023-04-18T06:06:13.711Z,101648.53
2023-04-18T06:08:41.566Z,101655.50
2023-04-18T06:11:09.386Z,101659.19
2023-04-18T06:13:37.474Z,101656.22
2023-04-18T06:16:05.886Z,101655.84
2023-04-18T06:18:33.730Z,101653.09
2023-04-18T06:21:01.516Z,101665.34
2023-04-18T06:23:30.659Z,101666.66
2023-04-18T06:25:59.086Z,101660.28
2023-04-18T06:28:27.500Z,101663.53
2023-04-18T06:30:55.236Z,101669.28
2023-04-18T06:33:23.022Z,101671.78
2023-04-18T06:35:50.802Z,101671.78
2023-04-18T06:38:18.641Z,101683.06
2023-04-18T06:40:47.821Z,101679.34
2023-04-18T06:43:15.663Z,101676.25
2023-04-18T06:45:43.539Z,101685.69
2023-04-18T06:48:11.366Z,101681.63
2023-04-18T06:50:39.072Z,101685.69
2023-04-18T06:53:06.850Z,101680.56
2023-04-18T06:55:34.669Z,101695.16
2023-04-18T06:58:05.428Z,101687.03
2023-04-18T07:00:33.326Z,101694.19
2023-04-18T07:03:02.020Z,101693.50
2023-04-18T07:05:30.453Z,101681.97
2023-04-18T07:07:58.179Z,101683.63
2023-04-18T07:10:25.921Z,101686.16
2023-04-18T07:12:53.653Z,101692.59
2023-04-18T07:15:22.742Z,101682.16
2023-04-18T07:17:50.549Z,101685.41
2023-04-18T07:20:18.314Z,101688.63
2023-04-18T07:22:47.920Z,101687.75
2023-04-18T07:25:15.815Z,101677.19
2023-04-18T07:27:43.605Z,101683.38
2023-04-18T07:30:12.278Z,101683.25
2023-04-18T07:32:41.391Z,101676.47
2023-04-18T07:35:09.811Z,101676.84
2023-04-18T07:37:37.713Z,101679.00
2023-04-18T07:40:06.631Z,101684.13
2023-04-18T07:42:34.367Z,101690.66
2023-04-18T07:45:02.293Z,101683.88
2023-04-18T07:47:31.505Z,101690.31
2023-04-18T07:50:01.397Z,101686.06
2023-04-18T07:52:29.122Z,101692.72
2023-04-18T07:54:57.010Z,101691.66
2023-04-18T07:57:24.714Z,101686.13
2023-04-18T07:59:53.862Z,101688.38
2023-04-18T08:02:22.108Z,101686.41
2023-04-18T08:04:52.002Z,101680.44
2023-04-18T08:07:21.383Z,101691.28
2023-04-18T08:09:49.180Z,101689.19
2023-04-18T08:12:16.941Z,101681.53
2023-04-18T08:14:44.778Z,101679.00
2023-04-18T08:17:12.478Z,101684.22
2023-04-18T08:19:40.457Z,101687.41
2023-04-18T08:22:10.152Z,101683.88
2023-04-18T08:24:40.118Z,101693.63
2023-04-18T08:27:08.008Z,101697.69
2023-04-18T08:29:35.975Z,101697.53
2023-04-18T08:32:03.827Z,101702.88
2023-04-18T08:34:34.162Z,101698.66
2023-04-18T08:37:02.064Z,101696.09
2023-04-18T08:39:29.823Z,101691.81
2023-04-18T08:42:00.712Z,101704.88
2023-04-18T08:44:29.217Z,101706.41
2023-04-18T08:46:57.491Z,101709.69
2023-04-18T08:49:26.159Z,101700.09
2023-04-18T08:51:54.062Z,101708.59
2023-04-18T08:54:23.836Z,101712.06
2023-04-18T08:57:06.504Z,101716.81
2023-04-18T08:59:35.476Z,101714.41
2023-04-18T09:02:04.554Z,101710.38
2023-04-18T09:04:37.683Z,101722.34
2023-04-18T09:07:07.142Z,101723.84
2023-04-18T09:09:42.267Z,101718.44
2023-04-18T09:12:15.228Z,101732.25
2023-04-18T09:14:46.962Z,101722.50
2023-04-18T09:17:18.255Z,101728.22
2023-04-18T09:19:48.818Z,101720.28
2023-04-18T09:22:17.436Z,101722.66
2023-04-18T09:24:55.423Z,101724.97
2023-04-18T09:27:25.654Z,101727.13
2023-04-18T09:29:56.465Z,101729.66
2023-04-18T09:32:27.379Z,101735.06
2023-04-18T09:34:57.996Z,101730.47
2023-04-18T09:37:26.497Z,101730.63
2023-04-18T09:39:54.447Z,101723.22
2023-04-18T09:42:26.164Z,101729.00
2023-04-18T09:45:04.832Z,101730.94
2023-04-18T09:47:34.912Z,101728.88
2023-04-18T09:50:04.220Z,101722.06
2023-04-18T09:52:35.939Z,101733.25
2023-04-18T09:55:05.895Z,101725.84
2023-04-18T09:57:36.487Z,101729.56
2023-04-18T10:00:13.911Z,101725.09
2023-04-18T10:02:49.812Z,101714.13
2023-04-18T10:05:21.105Z,101718.28
2023-04-18T10:07:51.005Z,101719.50
2023-04-18T10:10:19.115Z,101716.25
2023-04-18T10:12:50.615Z,101721.06
2023-04-18T10:15:21.110Z,101704.25
2023-04-18T10:18:03.709Z,101709.34
2023-04-18T10:20:35.378Z,101717.00
2023-04-18T10:23:36.093Z,101716.41
2023-04-18T10:26:04.843Z,101709.34
2023-04-18T10:28:53.145Z,101704.53
2023-04-18T10:31:22.530Z,101695.34
2023-04-18T10:34:03.289Z,101688.19
2023-04-18T10:36:32.525Z,101690.38
2023-04-18T10:39:02.967Z,101693.22
2023-04-18T10:41:32.275Z,101684.38
2023-04-18T10:44:22.237Z,101687.53
2023-04-18T10:47:31.746Z,101692.53
2023-04-18T10:50:06.160Z,101696.69
2023-04-18T10:52:34.536Z,101692.69
2023-04-18T10:55:18.420Z,101688.88
2023-04-18T10:57:47.716Z,101689.84
2023-04-18T11:00:18.793Z,101691.22
2023-04-18T11:02:51.845Z,101689.88
2023-04-18T11:05:22.786Z,101679.03
2023-04-18T11:07:51.012Z,101681.69
2023-04-18T11:10:20.942Z,101680.72
2023-04-18T11:12:49.111Z,101682.53
2023-04-18T11:15:21.892Z,101688.03
2023-04-18T11:17:57.965Z,101683.06
2023-04-18T11:20:26.651Z,101679.19
2023-04-18T11:22:56.121Z,101680.34
2023-04-18T11:25:26.994Z,101675.81
2023-04-18T11:27:55.755Z,101675.31
2023-04-18T11:30:24.901Z,101670.16
2023-04-18T11:32:54.110Z,101671.47
2023-04-18T11:35:21.884Z,101656.44
2023-04-18T11:37:51.139Z,101673.81
2023-04-18T11:40:18.971Z,101668.50
2023-04-18T11:42:46.786Z,101670.19
2023-04-18T11:45:16.203Z,101671.34
2023-04-18T11:47:47.376Z,101672.53
2023-04-18T11:50:15.198Z,101672.03
2023-04-18T11:52:43.474Z,101674.19
2023-04-18T11:55:14.027Z,101679.84
2023-04-18T11:57:42.538Z,101677.34
2023-04-18T12:00:12.283Z,101671.97
2023-04-18T12:02:42.144Z,101679.34
2023-04-18T12:05:12.166Z,101672.97
2023-04-18T12:07:41.877Z,101675.00
2023-04-18T12:10:11.236Z,101679.50
2023-04-18T12:12:39.042Z,101665.69
2023-04-18T12:15:09.751Z,101671.97
2023-04-18T12:17:38.450Z,101678.81
2023-04-18T12:20:09.857Z,101671.84
2023-04-18T12:22:44.466Z,101673.84
2023-04-18T12:25:27.706Z,101677.50
2023-04-18T12:27:58.678Z,101670.34
2023-04-18T12:30:28.890Z,101690.53
2023-04-18T12:32:58.389Z,101667.69
2023-04-18T12:35:26.885Z,101678.34
2023-04-18T12:37:57.364Z,101670.34
2023-04-18T12:40:26.397Z,101676.19
2023-04-18T12:42:55.471Z,101676.38
2023-04-18T12:45:24.510Z,101671.34
2023-04-18T12:47:53.391Z,101681.34
2023-04-18T12:50:22.775Z,101689.03
2023-04-18T12:52:52.063Z,101677.69
2023-04-18T12:55:22.630Z,101690.03
2023-04-18T12:57:51.789Z,101677.38
2023-04-18T13:00:19.554Z,101680.72
2023-04-18T13:02:47.421Z,101682.03
2023-04-18T13:05:16.610Z,101682.84
2023-04-18T13:07:47.257Z,101683.88
2023-04-18T13:10:17.603Z,101679.72
2023-04-18T13:12:47.471Z,101686.19
2023-04-18T13:15:15.817Z,101687.53
2023-04-18T13:17:44.463Z,101685.53
2023-04-18T13:20:13.604Z,101688.19
2023-04-18T13:22:42.294Z,101689.19
2023-04-18T13:25:11.387Z,101688.03
2023-04-18T13:27:41.765Z,101694.53
2023-04-18T13:30:12.204Z,101687.69
2023-04-18T13:32:40.490Z,101680.84
2023-04-18T13:35:09.810Z,101675.53
2023-04-18T13:37:37.816Z,101678.19
2023-04-18T13:40:06.826Z,101676.53
2023-04-18T13:42:34.920Z,101681.22
2023-04-18T13:45:03.242Z,101683.19
2023-04-18T13:47:32.554Z,101688.19
2023-04-18T13:50:00.404Z,101685.72
2023-04-18T13:52:28.133Z,101685.88
2023-04-18T13:54:56.111Z,101677.38
2023-04-18T13:57:23.822Z,101675.34
2023-04-18T13:59:51.622Z,101678.03
2023-04-18T14:02:19.393Z,101678.63
2023-04-18T14:04:48.782Z,101670.97
2023-04-18T14:07:16.587Z,101674.28
2023-04-18T14:09:44.338Z,101670.13
2023-04-18T14:12:12.168Z,101663.63
2023-04-18T14:14:39.896Z,101656.34
2023-04-18T14:17:07.671Z,101664.88
2023-04-18T14:19:35.820Z,101663.72
2023-04-18T14:22:04.923Z,101651.38
2023-04-18T14:24:32.872Z,101656.84
2023-04-18T14:27:01.946Z,101663.13
2023-04-18T14:29:29.761Z,101660.66
2023-04-18T14:31:57.515Z,101655.13
2023-04-18T14:34:25.345Z,101648.94
2023-04-18T14:36:53.054Z,101658.03
2023-04-18T14:39:22.217Z,101637.13
2023-04-18T14:41:50.056Z,101652.84
2023-04-18T14:44:17.752Z,101649.31
2023-04-18T14:46:45.605Z,101649.59
2023-04-18T14:49:13.642Z,101650.25
2023-04-18T14:51:41.537Z,101650.19
2023-04-18T14:54:09.394Z,101646.28
2023-04-18T14:56:38.557Z,101647.81
2023-04-18T14:59:06.305Z,101639.31
2023-04-18T15:01:34.187Z,101647.03
2023-04-18T15:04:04.277Z,101648.13
2023-04-18T15:06:32.567Z,101637.44
2023-04-18T15:09:00.526Z,101620.88
2023-04-18T15:11:28.239Z,101634.13
2023-04-18T15:13:58.006Z,101625.13
2023-04-18T15:16:25.813Z,101633.72
2023-04-18T15:18:53.738Z,101632.38
2023-04-18T15:21:21.603Z,101633.06
2023-04-18T15:23:49.338Z,101623.09
2023-04-18T15:26:17.046Z,101629.66
2023-04-18T15:28:45.215Z,101633.28
2023-04-18T15:31:15.991Z,101623.09
2023-04-18T15:33:43.840Z,101626.22
2023-04-18T15:36:11.583Z,101621.19
2023-04-18T15:38:39.904Z,101625.00
2023-04-18T15:41:07.701Z,101630.31
2023-04-18T15:43:35.420Z,101620.97
2023-04-18T15:46:04.165Z,101631.31
2023-04-18T15:48:34.463Z,101630.31
2023-04-18T15:51:02.269Z,101632.97
2023-04-18T15:53:30.237Z,101628.94
2023-04-18T15:56:00.812Z,101625.59
2023-04-18T15:58:30.127Z,101626.75
2023-04-18T16:00:58.771Z,101633.56
2023-04-18T16:03:27.019Z,101619.91
2023-04-18T16:05:56.292Z,101623.25
2023-04-18T16:08:24.039Z,101626.75
2023-04-18T16:10:53.266Z,101619.91
2023-04-18T16:13:21.014Z,101618.38
2023-04-18T16:15:48.840Z,101624.53
2023-04-18T16:18:16.583Z,101626.50
2023-04-18T16:20:44.330Z,101624.16
2023-04-18T16:23:13.403Z,101617.03
2023-04-18T16:25:41.201Z,101627.94
2023-04-18T16:28:08.905Z,101622.47
2023-04-18T16:30:36.644Z,101621.63
2023-04-18T16:33:04.661Z,101622.78
2023-04-18T16:35:32.758Z,101623.09
2023-04-18T16:38:00.731Z,101620.56
2023-04-18T16:40:30.657Z,101623.53
2023-04-18T16:42:58.639Z,101627.19
2023-04-18T16:45:26.369Z,101619.50
2023-04-18T16:47:54.153Z,101619.50
2023-04-18T16:50:23.470Z,101633.69
2023-04-18T16:52:51.477Z,101628.25
2023-04-18T16:55:19.345Z,101629.91
2023-04-18T16:57:48.425Z,101635.09
2023-04-18T17:00:16.664Z,101635.22
2023-04-18T17:02:45.214Z,101641.19
2023-04-18T17:05:13.098Z,101636.72
2023-04-18T17:07:40.791Z,101636.72
2023-04-18T17:10:10.257Z,101634.53
2023-04-18T17:12:38.152Z,101643.09
2023-04-18T17:15:09.124Z,101646.13
2023-04-18T17:17:36.850Z,101649.56
2023-04-18T17:20:07.227Z,101639.56
2023-04-18T17:22:35.742Z,101653.56
2023-04-18T17:25:03.959Z,101650.78
2023-04-18T17:27:31.672Z,101655.97
2023-04-18T17:29:59.375Z,101653.22
2023-04-18T17:32:28.594Z,101659.94
2023-04-18T17:34:56.677Z,101649.50
2023-04-18T17:37:24.432Z,101648.81
2023-04-18T17:39:52.144Z,101654.31
2023-04-18T17:42:21.077Z,101658.66
2023-04-18T17:44:48.934Z,101649.72
2023-04-18T17:47:16.657Z,101647.50
2023-04-18T17:49:46.027Z,101657.97
2023-04-18T17:52:13.891Z,101656.44
2023-04-18T17:54:41.717Z,101652.56
2023-04-18T17:57:09.467Z,101648.09
2023-04-18T17:59:38.371Z,101655.34
2023-04-18T18:02:06.596Z,101656.31
2023-04-18T18:04:34.567Z,101660.63
2023-04-18T18:07:04.058Z,101668.41
2023-04-18T18:09:31.998Z,101663.94
2023-04-18T18:11:59.963Z,101661.97
2023-04-18T18:14:28.170Z,101653.28
2023-04-18T18:16:56.113Z,101667.06
2023-04-18T18:19:23.912Z,101670.41
2023-04-18T18:21:51.658Z,101671.06
2023-04-18T18:24:20.821Z,101678.69
2023-04-18T18:26:51.009Z,101680.34
2023-04-18T18:29:19.849Z,101680.28
2023-04-18T18:31:47.685Z,101679.13
2023-04-18T18:34:15.581Z,101685.22
2023-04-18T18:36:43.323Z,101680.56
2023-04-18T18:39:11.792Z,101686.38
2023-04-18T18:41:41.202Z,101683.44
2023-04-18T18:44:09.002Z,101683.00
2023-04-18T18:46:36.773Z,101686.59
2023-04-18T18:49:04.607Z,101692.72
2023-04-18T18:51:32.631Z,101692.31
2023-04-18T18:54:00.389Z,101688.06
2023-04-18T18:56:28.246Z,101694.13
2023-04-18T18:58:57.480Z,101693.31
2023-04-18T19:01:25.289Z,101694.94
2023-04-18T19:03:53.276Z,101694.81
2023-04-18T19:06:21.244Z,101696.69
2023-04-18T19:08:48.954Z,101685.44
2023-04-18T19:11:18.184Z,101696.91
2023-04-18T19:13:46.021Z,101701.63
2023-04-18T19:16:15.130Z,101694.03
2023-04-18T19:18:46.862Z,101700.44
2023-04-18T19:21:14.990Z,101689.31
2023-04-18T19:23:42.803Z,101703.97
2023-04-18T19:26:10.654Z,101697.28
2023-04-18T19:28:38.381Z,101695.03
2023-04-18T19:31:06.676Z,101695.63
2023-04-18T19:33:35.752Z,101697.84
2023-04-18T19:36:03.519Z,101698.44
2023-04-18T19:38:31.358Z,101703.28
2023-04-18T19:40:59.099Z,101699.38
2023-04-18T19:43:26.909Z,101699.13
2023-04-18T19:45:55.382Z,101708.59
2023-04-18T19:48:23.254Z,101700.38
2023-04-18T19:50:52.414Z,101702.75
2023-04-18T19:53:20.604Z,101689.38
2023-04-18T19:55:48.359Z,101694.50
2023-04-18T19:58:37.891Z,101692.56
2023-04-18T20:01:05.857Z,101694.38
2023-04-18T20:03:34.445Z,101690.88
2023-04-18T20:06:05.423Z,101681.00
2023-04-18T20:08:33.306Z,101688.09
2023-04-18T20:11:01.164Z,101687.00
2023-04-18T20:13:28.986Z,101687.66
2023-04-18T20:15:56.899Z,101686.03
2023-04-18T20:18:24.940Z,101689.34
2023-04-18T20:20:52.702Z,101691.03
2023-04-18T20:23:21.839Z,101689.06
2023-04-18T20:25:49.639Z,101688.94
2023-04-18T20:28:17.371Z,101681.00
2023-04-18T20:30:45.709Z,101681.66
2023-04-18T20:33:13.653Z,101694.91
2023-04-18T20:35:41.556Z,101681.41
2023-04-18T20:38:11.145Z,101682.94
2023-04-18T20:40:40.343Z,101690.88
2023-04-18T20:43:08.178Z,101685.59
2023-04-18T20:45:37.563Z,101691.72
2023-04-18T20:48:06.421Z,101695.88
2023-04-18T20:50:34.271Z,101692.41
2023-04-18T20:53:02.394Z,101691.28
2023-04-18T20:55:30.278Z,101692.28
2023-04-18T20:57:59.540Z,101694.91
2023-04-18T21:00:27.576Z,101696.59
2023-04-18T21:02:55.520Z,101701.75
2023-04-18T21:05:23.628Z,101694.66
2023-04-18T21:07:51.398Z,101701.63
2023-04-18T21:10:19.267Z,101702.47
2023-04-18T21:12:47.229Z,101706.09
2023-04-18T21:15:16.446Z,101711.38
2023-04-18T21:17:44.374Z,101718.38
2023-04-18T21:20:12.358Z,101713.88
2023-04-18T21:22:40.077Z,101705.91
2023-04-18T21:25:08.867Z,101718.38
2023-04-18T21:27:36.677Z,101706.94
2023-04-18T21:30:05.209Z,101710.69
2023-04-18T21:32:34.428Z,101711.66
2023-04-18T21:35:02.512Z,101711.53
2023-04-18T21:37:31.094Z,101705.53
2023-04-18T21:39:58.966Z,101705.38
2023-04-18T21:42:26.875Z,101709.97
2023-04-18T21:44:55.104Z,101709.84
2023-04-18T21:47:23.021Z,101702.03
2023-04-18T21:49:52.123Z,101709.28
2023-04-18T21:52:19.912Z,101718.91
2023-04-18T21:54:47.762Z,101704.97
2023-04-18T21:57:15.511Z,101707.63
2023-04-18T21:59:43.232Z,101718.50
2023-04-18T22:02:11.255Z,101715.16
2023-04-18T22:04:42.495Z,101711.66
2023-04-18T22:07:12.441Z,101709.84
2023-04-18T22:09:40.168Z,101696.06
2023-04-18T22:12:08.560Z,101706.78
2023-04-18T22:14:36.332Z,101719.34
2023-04-18T22:17:04.654Z,101709.69
2023-04-18T22:19:32.551Z,101709.69
2023-04-18T22:22:00.289Z,101703.56
2023-04-18T22:24:29.454Z,101705.41
2023-04-18T22:26:57.186Z,101708.31
2023-04-18T22:29:24.913Z,101700.38
2023-04-18T22:31:52.623Z,101701.22
2023-04-18T22:34:20.386Z,101698.84
2023-04-18T22:36:48.126Z,101697.03
2023-04-18T22:39:16.180Z,101702.44
2023-04-18T22:41:45.408Z,101707.75
2023-04-18T22:44:13.355Z,101705.94
2023-04-18T22:46:41.384Z,101706.78
2023-04-18T22:49:09.233Z,101713.06
2023-04-18T22:51:38.113Z,101706.91
2023-04-18T22:54:05.970Z,101712.22
2023-04-18T22:56:33.745Z,101701.06
2023-04-18T22:59:02.833Z,101708.31
2023-04-18T23:01:30.606Z,101704.81
2023-04-18T23:03:58.510Z,101712.38
2023-04-18T23:06:27.918Z,101714.31
2023-04-18T23:08:55.622Z,101712.91
2023-04-18T23:11:23.325Z,101715.28
2023-04-18T23:13:51.370Z,101705.25
2023-04-18T23:16:20.585Z,101704.94
2023-04-18T23:18:48.340Z,101712.03
2023-04-18T23:21:17.374Z,101703.09
2023-04-18T23:23:45.105Z,101708.22
2023-04-18T23:26:14.280Z,101706.63
2023-04-18T23:28:42.237Z,101699.50
2023-04-18T23:31:10.371Z,101713.38
2023-04-18T23:33:39.487Z,101706.13
2023-04-18T23:36:08.138Z,101715.56
2023-04-18T23:38:37.161Z,101716.09
2023-04-18T23:41:04.997Z,101714.34
2023-04-18T23:43:32.804Z,101713.78
2023-04-18T23:46:00.573Z,101720.16
2023-04-18T23:48:28.384Z,101722.81
2023-04-18T23:50:57.484Z,101712.94
2023-04-18T23:53:25.283Z,101723.53
2023-04-18T23:55:54.261Z,101715.31
2023-04-18T23:58:22.089Z,101716.16
